sensor_id;sensor_type;location;lat;lon;timestamp;pressure;altitude;pressure_sealevel;temperature;humidity
49461;BME280;35355;49.198;-0.368;2023-05-09T00:01:57;101047.97;;;17.18;69.15
49461;BME280;35355;49.198;-0.368;2023-05-09T00:04:24;101047.16;;;17.17;69.35
49461;BME280;35355;49.198;-0.368;2023-05-09T00:06:49;101042.75;;;17.16;69.56
49461;BME280;35355;49.198;-0.368;2023-05-09T00:09:15;101048.56;;;17.15;69.36
49461;BME280;35355;49.198;-0.368;2023-05-09T00:11:40;101033.13;;;17.14;69.39
49461;BME280;35355;49.198;-0.368;2023-05-09T00:14:06;101040.31;;;17.15;69.51
49461;BME280;35355;49.198;-0.368;2023-05-09T00:16:31;101034.78;;;17.15;69.70
49461;BME280;35355;49.198;-0.368;2023-05-09T00:18:58;101024.56;;;17.15;69.66
49461;BME280;35355;49.198;-0.368;2023-05-09T00:21:23;101028.16;;;17.16;69.82
49461;BME280;35355;49.198;-0.368;2023-05-09T00:23:49;101016.81;;;17.17;69.85
49461;BME280;35355;49.198;-0.368;2023-05-09T00:26:14;101017.63;;;17.18;69.78
49461;BME280;35355;49.198;-0.368;2023-05-09T00:28:40;101008.84;;;17.16;69.58
49461;BME280;35355;49.198;-0.368;2023-05-09T00:31:05;101011.59;;;17.16;69.77
49461;BME280;35355;49.198;-0.368;2023-05-09T00:33:30;101004.44;;;17.15;69.97
49461;BME280;35355;49.198;-0.368;2023-05-09T00:35:56;101000.03;;;17.14;69.91
49461;BME280;35355;49.198;-0.368;2023-05-09T00:38:22;101003.69;;;17.09;69.87
49461;BME280;35355;49.198;-0.368;2023-05-09T00:40:47;101001.25;;;17.08;70.07
49461;BME280;35355;49.198;-0.368;2023-05-09T00:43:13;100998.47;;;17.08;70.24
49461;BME280;35355;49.198;-0.368;2023-05-09T00:45:38;100997.97;;;17.06;70.15
49461;BME280;35355;49.198;-0.368;2023-05-09T00:48:04;100994.16;;;17.01;70.15
49461;BME280;35355;49.198;-0.368;2023-05-09T00:50:30;100992.53;;;17.00;70.38
49461;BME280;35355;49.198;-0.368;2023-05-09T00:52:56;100986.19;;;17.00;70.56
49461;BME280;35355;49.198;-0.368;2023-05-09T00:55:21;100985.09;;;17.01;70.36
49461;BME280;35355;49.198;-0.368;2023-05-09T00:57:47;100981.50;;;17.00;70.71
49461;BME280;35355;49.198;-0.368;2023-05-09T01:00:13;100978.72;;;17.00;70.54
49461;BME280;35355;49.198;-0.368;2023-05-09T01:02:43;100979.34;;;16.97;70.28
49461;BME280;35355;49.198;-0.368;2023-05-09T01:05:11;100978.53;;;16.97;70.72
49461;BME280;35355;49.198;-0.368;2023-05-09T01:07:45;100966.69;;;16.96;70.40
49461;BME280;35355;49.198;-0.368;2023-05-09T01:18:20;100958.81;;;17.04;71.00
49461;BME280;35355;49.198;-0.368;2023-05-09T01:21:01;100961.06;;;17.01;70.70
49461;BME280;35355;49.198;-0.368;2023-05-09T01:31:37;100939.41;;;16.95;69.58
49461;BME280;35355;49.198;-0.368;2023-05-09T01:34:05;100941.03;;;16.96;70.94
49461;BME280;35355;49.198;-0.368;2023-05-09T01:36:35;100937.22;;;16.92;71.14
49461;BME280;35355;49.198;-0.368;2023-05-09T01:39:02;100931.50;;;16.88;71.33
49461;BME280;35355;49.198;-0.368;2023-05-09T01:41:30;100935.91;;;16.89;71.53
49461;BME280;35355;49.198;-0.368;2023-05-09T01:44:01;100930.41;;;16.89;71.65
49461;BME280;35355;49.198;-0.368;2023-05-09T01:46:28;100927.66;;;16.89;71.71
49461;BME280;35355;49.198;-0.368;2023-05-09T01:48:54;100922.13;;;16.89;71.78
49461;BME280;35355;49.198;-0.368;2023-05-09T01:51:20;100920.19;;;16.90;72.11
49461;BME280;35355;49.198;-0.368;2023-05-09T01:53:47;100915.47;;;16.90;71.93
49461;BME280;35355;49.198;-0.368;2023-05-09T01:56:14;100911.59;;;16.91;72.22
49461;BME280;35355;49.198;-0.368;2023-05-09T01:58:41;100910.50;;;16.92;72.14
49461;BME280;35355;49.198;-0.368;2023-05-09T02:01:08;100908.03;;;16.91;72.19
49461;BME280;35355;49.198;-0.368;2023-05-09T02:03:36;100899.78;;;16.91;72.15
49461;BME280;35355;49.198;-0.368;2023-05-09T02:06:03;100899.22;;;16.89;72.19
49461;BME280;35355;49.198;-0.368;2023-05-09T02:08:29;100901.44;;;16.87;72.45
49461;BME280;35355;49.198;-0.368;2023-05-09T02:10:55;100900.66;;;16.86;72.40
49461;BME280;35355;49.198;-0.368;2023-05-09T02:13:21;100897.34;;;16.84;72.59
49461;BME280;35355;49.198;-0.368;2023-05-09T02:15:46;100897.34;;;16.84;72.57
49461;BME280;35355;49.198;-0.368;2023-05-09T02:18:12;100897.34;;;16.84;72.61
49461;BME280;35355;49.198;-0.368;2023-05-09T02:20:38;100892.97;;;16.83;72.62
49461;BME280;35355;49.198;-0.368;2023-05-09T02:23:03;100889.38;;;16.82;72.85
49461;BME280;35355;49.198;-0.368;2023-05-09T02:25:30;100895.19;;;16.81;72.71
49461;BME280;35355;49.198;-0.368;2023-05-09T02:27:56;100887.53;;;16.78;72.75
49461;BME280;35355;49.198;-0.368;2023-05-09T02:30:23;100896.09;;;16.76;72.73
49461;BME280;35355;49.198;-0.368;2023-05-09T02:32:56;100898.06;;;16.76;72.70
49461;BME280;35355;49.198;-0.368;2023-05-09T02:35:25;100892.53;;;16.76;73.05
49461;BME280;35355;49.198;-0.368;2023-05-09T02:37:52;100886.72;;;16.77;73.09
49461;BME280;35355;49.198;-0.368;2023-05-09T02:40:18;100894.69;;;16.79;73.08
49461;BME280;35355;49.198;-0.368;2023-05-09T02:42:44;100889.97;;;16.79;73.10
49461;BME280;35355;49.198;-0.368;2023-05-09T02:45:10;100889.19;;;16.79;73.06
49461;BME280;35355;49.198;-0.368;2023-05-09T02:47:36;100889.19;;;16.79;73.22
49461;BME280;35355;49.198;-0.368;2023-05-09T02:50:02;100882.81;;;16.78;73.14
49461;BME280;35355;49.198;-0.368;2023-05-09T02:52:28;100882.03;;;16.78;72.90
49461;BME280;35355;49.198;-0.368;2023-05-09T02:54:53;100876.81;;;16.76;73.24
49461;BME280;35355;49.198;-0.368;2023-05-09T02:57:18;100880.38;;;16.77;73.31
49461;BME280;35355;49.198;-0.368;2023-05-09T02:59:45;100878.16;;;16.79;73.16
49461;BME280;35355;49.198;-0.368;2023-05-09T03:02:10;100874.25;;;16.80;73.20
49461;BME280;35355;49.198;-0.368;2023-05-09T03:04:35;100881.13;;;16.82;73.14
49461;BME280;35355;49.198;-0.368;2023-05-09T03:07:01;100875.28;;;16.84;73.22
49461;BME280;35355;49.198;-0.368;2023-05-09T03:09:27;100865.91;;;16.85;73.57
49461;BME280;35355;49.198;-0.368;2023-05-09T03:11:53;100869.78;;;16.84;73.31
49461;BME280;35355;49.198;-0.368;2023-05-09T03:14:19;100877.53;;;16.82;73.30
49461;BME280;35355;49.198;-0.368;2023-05-09T03:16:44;100867.63;;;16.81;73.31
49461;BME280;35355;49.198;-0.368;2023-05-09T03:19:09;100854.66;;;16.81;73.37
49461;BME280;35355;49.198;-0.368;2023-05-09T03:21:35;100864.88;;;16.81;73.34
49461;BME280;35355;49.198;-0.368;2023-05-09T03:24:00;100858.56;;;16.80;73.49
49461;BME280;35355;49.198;-0.368;2023-05-09T03:26:25;100857.72;;;16.80;73.53
49461;BME280;35355;49.198;-0.368;2023-05-09T03:28:51;100862.41;;;16.79;73.23
49461;BME280;35355;49.198;-0.368;2023-05-09T03:31:16;100850.59;;;16.79;73.38
49461;BME280;35355;49.198;-0.368;2023-05-09T03:33:42;100850.59;;;16.79;73.64
49461;BME280;35355;49.198;-0.368;2023-05-09T03:36:07;100858.84;;;16.79;73.63
49461;BME280;35355;49.198;-0.368;2023-05-09T03:38:33;100852.19;;;16.80;73.73
49461;BME280;35355;49.198;-0.368;2023-05-09T03:40:58;100847.81;;;16.79;73.77
49461;BME280;35355;49.198;-0.368;2023-05-09T03:43:23;100847.81;;;16.79;73.81
49461;BME280;35355;49.198;-0.368;2023-05-09T03:45:49;100840.38;;;16.79;73.68
49461;BME280;35355;49.198;-0.368;2023-05-09T03:48:14;100841.19;;;16.80;73.68
49461;BME280;35355;49.198;-0.368;2023-05-09T03:50:40;100843.13;;;16.79;73.80
49461;BME280;35355;49.198;-0.368;2023-05-09T03:53:06;100835.16;;;16.78;73.88
49461;BME280;35355;49.198;-0.368;2023-05-09T03:55:31;100831.78;;;16.81;73.86
49461;BME280;35355;49.198;-0.368;2023-05-09T03:57:56;100831.19;;;16.84;73.77
49461;BME280;35355;49.198;-0.368;2023-05-09T04:00:22;100829.28;;;16.84;73.90
49461;BME280;35355;49.198;-0.368;2023-05-09T04:02:48;100822.91;;;16.84;73.93
49461;BME280;35355;49.198;-0.368;2023-05-09T04:05:14;100821.00;;;16.84;73.93
49461;BME280;35355;49.198;-0.368;2023-05-09T04:07:39;100827.31;;;16.85;73.84
49461;BME280;35355;49.198;-0.368;2023-05-09T04:10:06;100824.88;;;16.83;74.16
49461;BME280;35355;49.198;-0.368;2023-05-09T04:12:31;100822.09;;;16.83;73.82
49461;BME280;35355;49.198;-0.368;2023-05-09T04:14:57;100819.66;;;16.82;73.94
49461;BME280;35355;49.198;-0.368;2023-05-09T04:17:22;100824.34;;;16.81;73.81
49461;BME280;35355;49.198;-0.368;2023-05-09T04:19:47;100819.97;;;16.80;74.27
49461;BME280;35355;49.198;-0.368;2023-05-09T04:22:13;100817.19;;;16.80;74.21
49461;BME280;35355;49.198;-0.368;2023-05-09T04:24:38;100816.66;;;16.78;74.15
49461;BME280;35355;49.198;-0.368;2023-05-09T04:27:03;100816.97;;;16.77;74.41
49461;BME280;35355;49.198;-0.368;2023-05-09T04:29:29;100811.75;;;16.75;74.41
49461;BME280;35355;49.198;-0.368;2023-05-09T04:31:54;100818.13;;;16.76;74.47
49461;BME280;35355;49.198;-0.368;2023-05-09T04:34:20;100825.25;;;16.77;74.31
49461;BME280;35355;49.198;-0.368;2023-05-09T04:36:45;100824.44;;;16.76;74.49
49461;BME280;35355;49.198;-0.368;2023-05-09T04:39:10;100827.00;;;16.73;74.76
49461;BME280;35355;49.198;-0.368;2023-05-09T04:41:37;100823.69;;;16.71;74.53
49461;BME280;35355;49.198;-0.368;2023-05-09T04:44:02;100830.31;;;16.70;74.73
49461;BME280;35355;49.198;-0.368;2023-05-09T04:46:27;100821.53;;;16.67;74.86
49461;BME280;35355;49.198;-0.368;2023-05-09T04:48:53;100827.66;;;16.64;74.69
49461;BME280;35355;49.198;-0.368;2023-05-09T04:51:18;100826.00;;;16.63;74.90
49461;BME280;35355;49.198;-0.368;2023-05-09T04:53:43;100822.75;;;16.61;74.99
49461;BME280;35355;49.198;-0.368;2023-05-09T04:56:09;100823.84;;;16.60;74.91
49461;BME280;35355;49.198;-0.368;2023-05-09T04:58:35;100824.97;;;16.59;74.97
49461;BME280;35355;49.198;-0.368;2023-05-09T05:01:04;100820.06;;;16.56;74.89
49461;BME280;35355;49.198;-0.368;2023-05-09T05:03:30;100814.03;;;16.54;75.15
49461;BME280;35355;49.198;-0.368;2023-05-09T05:05:55;100803.03;;;16.54;75.01
49461;BME280;35355;49.198;-0.368;2023-05-09T05:08:21;100805.78;;;16.54;74.97
49461;BME280;35355;49.198;-0.368;2023-05-09T05:10:46;100811.28;;;16.54;74.93
49461;BME280;35355;49.198;-0.368;2023-05-09T05:13:13;100811.28;;;16.54;74.98
49461;BME280;35355;49.198;-0.368;2023-05-09T05:15:38;100818.44;;;16.55;75.05
49461;BME280;35355;49.198;-0.368;2023-05-09T05:18:04;100808.53;;;16.54;74.85
49461;BME280;35355;49.198;-0.368;2023-05-09T05:20:29;100806.38;;;16.51;75.08
49461;BME280;35355;49.198;-0.368;2023-05-09T05:22:55;100810.19;;;16.55;74.85
49461;BME280;35355;49.198;-0.368;2023-05-09T05:25:20;100810.19;;;16.55;75.05
49461;BME280;35355;49.198;-0.368;2023-05-09T05:27:46;100799.75;;;16.52;75.10
49461;BME280;35355;49.198;-0.368;2023-05-09T05:30:12;100799.16;;;16.55;75.06
49461;BME280;35355;49.198;-0.368;2023-05-09T05:32:39;100798.03;;;16.56;75.03
49461;BME280;35355;49.198;-0.368;2023-05-09T05:35:05;100798.84;;;16.57;75.06
49461;BME280;35355;49.198;-0.368;2023-05-09T05:37:30;100799.66;;;16.57;75.10
49461;BME280;35355;49.198;-0.368;2023-05-09T05:39:56;100796.91;;;16.57;75.13
49461;BME280;35355;49.198;-0.368;2023-05-09T05:42:21;100796.91;;;16.57;75.06
49461;BME280;35355;49.198;-0.368;2023-05-09T05:44:46;100796.59;;;16.59;74.95
49461;BME280;35355;49.198;-0.368;2023-05-09T05:47:12;100788.88;;;16.61;75.26
49461;BME280;35355;49.198;-0.368;2023-05-09T05:49:37;100784.16;;;16.61;75.12
49461;BME280;35355;49.198;-0.368;2023-05-09T05:52:03;100777.56;;;16.62;75.04
49461;BME280;35355;49.198;-0.368;2023-05-09T05:54:28;100787.44;;;16.63;75.18
49461;BME280;35355;49.198;-0.368;2023-05-09T05:56:53;100781.91;;;16.63;75.04
49461;BME280;35355;49.198;-0.368;2023-05-09T05:59:19;100785.50;;;16.64;75.09
49461;BME280;35355;49.198;-0.368;2023-05-09T06:01:44;100795.41;;;16.65;75.15
49461;BME280;35355;49.198;-0.368;2023-05-09T06:04:09;100789.59;;;16.66;75.17
49461;BME280;35355;49.198;-0.368;2023-05-09T06:06:35;100791.53;;;16.66;75.10
49461;BME280;35355;49.198;-0.368;2023-05-09T06:09:00;100791.22;;;16.67;75.22
49461;BME280;35355;49.198;-0.368;2023-05-09T06:11:26;100789.06;;;16.64;75.17
49461;BME280;35355;49.198;-0.368;2023-05-09T06:13:51;100792.94;;;16.63;75.12
49461;BME280;35355;49.198;-0.368;2023-05-09T06:16:16;100791.34;;;16.62;75.16
49461;BME280;35355;49.198;-0.368;2023-05-09T06:18:42;100792.44;;;16.61;75.08
49461;BME280;35355;49.198;-0.368;2023-05-09T06:21:07;100795.81;;;16.58;75.20
49461;BME280;35355;49.198;-0.368;2023-05-09T06:23:33;100790.34;;;16.53;75.12
49461;BME280;35355;49.198;-0.368;2023-05-09T06:25:58;100799.16;;;16.55;75.36
49461;BME280;35355;49.198;-0.368;2023-05-09T06:28:24;100790.91;;;16.55;75.17
49461;BME280;35355;49.198;-0.368;2023-05-09T06:30:49;100792.81;;;16.55;75.13
49461;BME280;35355;49.198;-0.368;2023-05-09T06:33:15;100787.59;;;16.53;75.16
49461;BME280;35355;49.198;-0.368;2023-05-09T06:35:40;100786.28;;;16.51;75.22
49461;BME280;35355;49.198;-0.368;2023-05-09T06:38:06;100789.34;;;16.49;75.36
49461;BME280;35355;49.198;-0.368;2023-05-09T06:40:32;100785.75;;;16.48;75.32
49461;BME280;35355;49.198;-0.368;2023-05-09T06:42:57;100779.94;;;16.50;75.37
49461;BME280;35355;49.198;-0.368;2023-05-09T06:45:22;100781.09;;;16.49;75.37
49461;BME280;35355;49.198;-0.368;2023-05-09T06:47:48;100784.63;;;16.49;75.24
49461;BME280;35355;49.198;-0.368;2023-05-09T06:50:13;100782.69;;;16.50;75.37
49461;BME280;35355;49.198;-0.368;2023-05-09T06:52:38;100780.47;;;16.52;75.13
49461;BME280;35355;49.198;-0.368;2023-05-09T06:55:04;100780.19;;;16.54;75.13
49461;BME280;35355;49.198;-0.368;2023-05-09T06:57:30;100784.53;;;16.55;75.39
49461;BME280;35355;49.198;-0.368;2023-05-09T06:59:55;100773.53;;;16.55;75.25
49461;BME280;35355;49.198;-0.368;2023-05-09T07:02:20;100773.53;;;16.55;75.14
49461;BME280;35355;49.198;-0.368;2023-05-09T07:04:46;100768.00;;;16.55;75.19
49461;BME280;35355;49.198;-0.368;2023-05-09T07:07:11;100767.72;;;16.56;75.29
49461;BME280;35355;49.198;-0.368;2023-05-09T07:09:36;100766.59;;;16.57;75.10
49461;BME280;35355;49.198;-0.368;2023-05-09T07:12:02;100764.94;;;16.56;75.09
49461;BME280;35355;49.198;-0.368;2023-05-09T07:14:27;100772.91;;;16.58;75.08
49461;BME280;35355;49.198;-0.368;2023-05-09T07:16:53;100755.06;;;16.55;75.23
49461;BME280;35355;49.198;-0.368;2023-05-09T07:19:18;100766.59;;;16.57;75.11
49461;BME280;35355;49.198;-0.368;2023-05-09T07:21:43;100758.63;;;16.56;75.03
49461;BME280;35355;49.198;-0.368;2023-05-09T07:24:09;100756.19;;;16.54;75.12
49461;BME280;35355;49.198;-0.368;2023-05-09T07:26:35;100767.22;;;16.54;75.00
49461;BME280;35355;49.198;-0.368;2023-05-09T07:29:00;100765.25;;;16.55;75.18
49461;BME280;35355;49.198;-0.368;2023-05-09T07:31:26;100767.22;;;16.54;75.15
49461;BME280;35355;49.198;-0.368;2023-05-09T07:33:51;100769.97;;;16.54;75.27
49461;BME280;35355;49.198;-0.368;2023-05-09T07:36:16;100770.47;;;16.56;75.20
49461;BME280;35355;49.198;-0.368;2023-05-09T07:38:42;100764.94;;;16.56;75.37
49461;BME280;35355;49.198;-0.368;2023-05-09T07:41:07;100764.94;;;16.56;75.39
49461;BME280;35355;49.198;-0.368;2023-05-09T07:43:33;100762.72;;;16.58;75.21
49461;BME280;35355;49.198;-0.368;2023-05-09T07:45:58;100763.25;;;16.60;75.33
49461;BME280;35355;49.198;-0.368;2023-05-09T07:48:23;100759.38;;;16.61;75.32
49461;BME280;35355;49.198;-0.368;2023-05-09T07:50:49;100760.72;;;16.64;75.31
49461;BME280;35355;49.198;-0.368;2023-05-09T07:53:14;100765.38;;;16.63;75.10
49461;BME280;35355;49.198;-0.368;2023-05-09T07:55:40;100773.66;;;16.63;75.13
49461;BME280;35355;49.198;-0.368;2023-05-09T07:58:05;100772.84;;;16.63;75.23
49461;BME280;35355;49.198;-0.368;2023-05-09T08:00:30;100781.91;;;16.63;75.06
49461;BME280;35355;49.198;-0.368;2023-05-09T08:02:56;100778.34;;;16.63;75.03
49461;BME280;35355;49.198;-0.368;2023-05-09T08:05:21;100774.78;;;16.62;75.04
49461;BME280;35355;49.198;-0.368;2023-05-09T08:07:46;100760.72;;;16.64;75.11
49461;BME280;35355;49.198;-0.368;2023-05-09T08:10:12;100776.84;;;16.71;74.99
49461;BME280;35355;49.198;-0.368;2023-05-09T08:12:38;100769.31;;;16.76;74.93
49461;BME280;35355;49.198;-0.368;2023-05-09T08:15:04;100769.19;;;16.81;75.42
49461;BME280;35355;49.198;-0.368;2023-05-09T08:17:29;100766.91;;;16.89;75.09
49461;BME280;35355;49.198;-0.368;2023-05-09T08:19:55;100757.22;;;16.91;74.91
49461;BME280;35355;49.198;-0.368;2023-05-09T08:22:20;100767.31;;;16.96;74.75
49461;BME280;35355;49.198;-0.368;2023-05-09T08:24:46;100762.03;;;16.99;74.75
49461;BME280;35355;49.198;-0.368;2023-05-09T08:27:12;100759.78;;;17.01;74.90
49461;BME280;35355;49.198;-0.368;2023-05-09T08:29:41;100758.97;;;17.01;74.57
49461;BME280;35355;49.198;-0.368;2023-05-09T08:32:07;100763.88;;;17.04;74.79
49461;BME280;35355;49.198;-0.368;2023-05-09T08:34:33;100770.19;;;17.05;74.62
49461;BME280;35355;49.198;-0.368;2023-05-09T08:37:02;100762.03;;;16.99;74.54
49461;BME280;35355;49.198;-0.368;2023-05-09T08:39:29;100767.00;;;16.97;74.46
49461;BME280;35355;49.198;-0.368;2023-05-09T08:41:57;100764.06;;;16.94;74.73
49461;BME280;35355;49.198;-0.368;2023-05-09T08:44:24;100761.63;;;16.92;74.55
49461;BME280;35355;49.198;-0.368;2023-05-09T08:46:51;100770.19;;;16.91;74.29
49461;BME280;35355;49.198;-0.368;2023-05-09T08:49:19;100766.09;;;16.88;74.42
49461;BME280;35355;49.198;-0.368;2023-05-09T08:51:46;100761.38;;;16.89;74.59
49461;BME280;35355;49.198;-0.368;2023-05-09T08:54:13;100762.72;;;16.91;74.41
49461;BME280;35355;49.198;-0.368;2023-05-09T08:56:39;100762.13;;;16.94;74.65
49461;BME280;35355;49.198;-0.368;2023-05-09T08:59:05;100756.00;;;16.97;74.32
49461;BME280;35355;49.198;-0.368;2023-05-09T09:01:32;100757.94;;;16.97;74.29
49461;BME280;35355;49.198;-0.368;2023-05-09T09:03:59;100760.09;;;17.00;74.29
49461;BME280;35355;49.198;-0.368;2023-05-09T09:06:27;100756.22;;;17.01;74.22
49461;BME280;35355;49.198;-0.368;2023-05-09T09:08:54;100760.00;;;17.05;74.09
49461;BME280;35355;49.198;-0.368;2023-05-09T09:11:21;100748.84;;;17.10;74.42
49461;BME280;35355;49.198;-0.368;2023-05-09T09:13:50;100756.53;;;17.13;74.14
49461;BME280;35355;49.198;-0.368;2023-05-09T09:16:21;100752.34;;;17.16;73.93
49461;BME280;35355;49.198;-0.368;2023-05-09T09:18:51;100750.06;;;17.18;73.84
49461;BME280;35355;49.198;-0.368;2023-05-09T09:21:18;100754.47;;;17.19;73.77
49461;BME280;35355;49.198;-0.368;2023-05-09T09:23:46;100741.19;;;17.21;73.81
49461;BME280;35355;49.198;-0.368;2023-05-09T09:26:12;100744.88;;;17.30;73.67
49461;BME280;35355;49.198;-0.368;2023-05-09T09:28:38;100746.28;;;17.42;73.98
49461;BME280;35355;49.198;-0.368;2023-05-09T09:31:20;100745.28;;;17.51;73.73
49461;BME280;35355;49.198;-0.368;2023-05-09T09:33:47;100740.25;;;17.67;73.76
49461;BME280;35355;49.198;-0.368;2023-05-09T09:36:12;100730.91;;;17.77;73.64
49461;BME280;35355;49.198;-0.368;2023-05-09T09:38:41;100742.34;;;17.84;73.42
49461;BME280;35355;49.198;-0.368;2023-05-09T09:41:11;100738.56;;;17.94;73.16
49461;BME280;35355;49.198;-0.368;2023-05-09T09:43:36;100745.41;;;17.97;72.70
49461;BME280;35355;49.198;-0.368;2023-05-09T09:46:03;100741.19;;;17.99;72.88
49461;BME280;35355;49.198;-0.368;2023-05-09T09:48:33;100739.44;;;18.03;72.65
49461;BME280;35355;49.198;-0.368;2023-05-09T09:51:17;100741.59;;;18.06;72.83
49461;BME280;35355;49.198;-0.368;2023-05-09T09:53:43;100741.16;;;18.13;72.34
49461;BME280;35355;49.198;-0.368;2023-05-09T09:56:09;100743.09;;;18.13;72.27
49461;BME280;35355;49.198;-0.368;2023-05-09T09:58:35;100743.09;;;18.13;72.33
49461;BME280;35355;49.198;-0.368;2023-05-09T10:01:04;100741.66;;;18.15;72.34
49461;BME280;35355;49.198;-0.368;2023-05-09T10:03:38;100741.88;;;18.19;72.40
49461;BME280;35355;49.198;-0.368;2023-05-09T10:06:04;100733.56;;;18.19;72.18
49461;BME280;35355;49.198;-0.368;2023-05-09T10:08:30;100746.25;;;18.20;72.05
49461;BME280;35355;49.198;-0.368;2023-05-09T10:10:56;100747.38;;;18.19;71.98
49461;BME280;35355;49.198;-0.368;2023-05-09T10:13:24;100747.38;;;18.19;71.79
49461;BME280;35355;49.198;-0.368;2023-05-09T10:15:50;100734.06;;;18.21;71.73
49461;BME280;35355;49.198;-0.368;2023-05-09T10:18:17;100736.50;;;18.22;71.72
49461;BME280;35355;49.198;-0.368;2023-05-09T10:20:45;100743.84;;;18.27;71.78
49461;BME280;35355;49.198;-0.368;2023-05-09T10:23:12;100738.00;;;18.29;71.70
49461;BME280;35355;49.198;-0.368;2023-05-09T10:25:55;100746.00;;;18.30;71.63
49461;BME280;35355;49.198;-0.368;2023-05-09T10:28:27;100739.84;;;18.33;71.29
49461;BME280;35355;49.198;-0.368;2023-05-09T10:31:00;100748.34;;;18.37;71.17
49461;BME280;35355;49.198;-0.368;2023-05-09T10:33:42;100739.34;;;18.31;71.24
49461;BME280;35355;49.198;-0.368;2023-05-09T10:36:10;100734.50;;;18.37;70.83
49461;BME280;35355;49.198;-0.368;2023-05-09T10:38:36;100739.50;;;18.35;70.76
49461;BME280;35355;49.198;-0.368;2023-05-09T10:41:02;100738.22;;;18.32;70.59
49461;BME280;35355;49.198;-0.368;2023-05-09T10:43:27;100734.44;;;18.28;70.27
49461;BME280;35355;49.198;-0.368;2023-05-09T10:45:54;100734.44;;;18.28;70.28
49461;BME280;35355;49.198;-0.368;2023-05-09T10:48:20;100737.06;;;18.33;70.30
49461;BME280;35355;49.198;-0.368;2023-05-09T10:50:47;100735.53;;;18.41;70.18
49461;BME280;35355;49.198;-0.368;2023-05-09T10:53:13;100741.06;;;18.50;70.31
49461;BME280;35355;49.198;-0.368;2023-05-09T10:55:52;100744.22;;;18.57;70.63
49461;BME280;35355;49.198;-0.368;2023-05-09T11:00:46;100740.56;;;18.70;69.88
49461;BME280;35355;49.198;-0.368;2023-05-09T11:03:11;100732.78;;;18.72;69.62
49461;BME280;35355;49.198;-0.368;2023-05-09T11:05:40;100731.81;;;18.77;69.70
49461;BME280;35355;49.198;-0.368;2023-05-09T11:10:44;100735.06;;;18.79;69.08
49461;BME280;35355;49.198;-0.368;2023-05-09T11:13:09;100734.22;;;18.70;68.90
49461;BME280;35355;49.198;-0.368;2023-05-09T11:15:35;100729.16;;;18.63;69.07
49461;BME280;35355;49.198;-0.368;2023-05-09T11:18:14;100730.28;;;18.62;69.54
49461;BME280;35355;49.198;-0.368;2023-05-09T11:20:43;100729.63;;;18.65;69.67
49461;BME280;35355;49.198;-0.368;2023-05-09T11:23:09;100720.38;;;18.70;69.83
49461;BME280;35355;49.198;-0.368;2023-05-09T11:25:37;100731.00;;;18.76;69.85
49461;BME280;35355;49.198;-0.368;2023-05-09T11:28:04;100736.22;;;18.78;69.72
49461;BME280;35355;49.198;-0.368;2023-05-09T11:30:40;100727.59;;;18.80;69.77
49461;BME280;35355;49.198;-0.368;2023-05-09T11:33:23;100723.06;;;18.84;69.90
49461;BME280;35355;49.198;-0.368;2023-05-09T11:38:45;100705.72;;;18.92;69.65
49461;BME280;35355;49.198;-0.368;2023-05-09T11:41:11;100716.66;;;18.97;69.21
49461;BME280;35355;49.198;-0.368;2023-05-09T11:43:38;100709.63;;;18.91;69.40
49461;BME280;35355;49.198;-0.368;2023-05-09T11:46:04;100705.88;;;18.87;69.37
49461;BME280;35355;49.198;-0.368;2023-05-09T11:48:29;100709.78;;;18.86;69.36
49461;BME280;35355;49.198;-0.368;2023-05-09T11:50:55;100711.41;;;18.87;69.68
49461;BME280;35355;49.198;-0.368;2023-05-09T11:53:21;100707.38;;;18.93;69.47
49461;BME280;35355;49.198;-0.368;2023-05-09T11:55:46;100707.22;;;18.98;69.28
49461;BME280;35355;49.198;-0.368;2023-05-09T11:58:12;100705.13;;;19.04;68.79
49461;BME280;35355;49.198;-0.368;2023-05-09T12:00:43;100692.59;;;19.06;68.95
49461;BME280;35355;49.198;-0.368;2023-05-09T12:03:09;100703.06;;;19.18;68.75
49461;BME280;35355;49.198;-0.368;2023-05-09T12:05:35;100701.91;;;19.28;68.82
49461;BME280;35355;49.198;-0.368;2023-05-09T12:08:05;100701.16;;;19.36;68.18
49461;BME280;35355;49.198;-0.368;2023-05-09T12:10:31;100695.59;;;19.36;68.08
49461;BME280;35355;49.198;-0.368;2023-05-09T12:12:56;100694.47;;;19.37;67.91
49461;BME280;35355;49.198;-0.368;2023-05-09T12:15:22;100686.50;;;19.36;67.71
49461;BME280;35355;49.198;-0.368;2023-05-09T12:18:05;100697.06;;;19.34;67.97
49461;BME280;35355;49.198;-0.368;2023-05-09T12:20:41;100701.78;;;19.33;67.82
49461;BME280;35355;49.198;-0.368;2023-05-09T12:23:08;100690.25;;;19.31;67.45
49461;BME280;35355;49.198;-0.368;2023-05-09T12:25:34;100680.94;;;19.27;67.58
49461;BME280;35355;49.198;-0.368;2023-05-09T12:28:00;100686.81;;;19.34;67.50
49461;BME280;35355;49.198;-0.368;2023-05-09T12:30:26;100682.25;;;19.38;67.33
49461;BME280;35355;49.198;-0.368;2023-05-09T12:32:51;100675.59;;;19.39;67.15
49461;BME280;35355;49.198;-0.368;2023-05-09T12:35:19;100670.56;;;19.41;67.39
49461;BME280;35355;49.198;-0.368;2023-05-09T12:37:59;100672.03;;;19.48;67.76
49461;BME280;35355;49.198;-0.368;2023-05-09T12:40:25;100669.91;;;19.53;67.13
49461;BME280;35355;49.198;-0.368;2023-05-09T12:42:52;100673.50;;;19.54;67.16
49461;BME280;35355;49.198;-0.368;2023-05-09T12:45:24;100685.03;;;19.56;67.02
49461;BME280;35355;49.198;-0.368;2023-05-09T12:47:55;100671.19;;;19.56;67.26
49461;BME280;35355;49.198;-0.368;2023-05-09T12:50:21;100669.91;;;19.62;67.42
49461;BME280;35355;49.198;-0.368;2023-05-09T12:52:50;100679.03;;;19.71;67.44
49461;BME280;35355;49.198;-0.368;2023-05-09T12:55:18;100666.50;;;19.74;67.07
49461;BME280;35355;49.198;-0.368;2023-05-09T12:57:57;100676.75;;;19.73;67.26
49461;BME280;35355;49.198;-0.368;2023-05-09T13:00:43;100675.13;;;19.72;66.96
49461;BME280;35355;49.198;-0.368;2023-05-09T13:03:38;100672.53;;;19.67;66.90